sensor_id;sensor_type;location;lat;lon;timestamp;P1;durP1;ratioP1;P2;durP2;ratioP2
48627;SDS011;34424;52.234;6.500;2023-09-07T00:00:08;5.3;;;4.8;;
48627;SDS011;34424;52.234;6.500;2023-09-07T00:05:08;4.9;;;4.5;;
48627;SDS011;34424;52.234;6.500;2023-09-07T00:10:08;5.2;;;4.7;;
48627;SDS011;34424;52.234;6.500;2023-09-07T00:15:08;5.3;;;4.8;;
48627;SDS011;34424;52.234;6.500;2023-09-07T00:20:08;4.7;;;4.3;;
48627;SDS011;34424;52.234;6.500;2023-09-07T00:25:08;7.5;;;5.4;;
48627;SDS011;34424;52.234;6.500;2023-09-07T00:30:09;5.3;;;4.9;;
48627;SDS011;34424;52.234;6.500;2023-09-07T00:35:08;6.3;;;5.8;;
48627;SDS011;34424;52.234;6.500;2023-09-07T00:40:09;7.8;;;6.6;;
48627;SDS011;34424;52.234;6.500;2023-09-07T00:45:09;8.9;;;8;;
48627;SDS011;34424;52.234;6.500;2023-09-07T00:50:09;10.6;;;8.3;;
48627;SDS011;34424;52.234;6.500;2023-09-07T00:55:09;10.4;;;9.2;;
48627;SDS011;34424;52.234;6.500;2023-09-07T01:00:09;9.7;;;8.8;;
48627;SDS011;34424;52.234;6.500;2023-09-07T01:05:09;10.7;;;9.2;;
48627;SDS011;34424;52.234;6.500;2023-09-07T01:10:09;10.2;;;9.2;;
48627;SDS011;34424;52.234;6.500;2023-09-07T01:15:09;9.8;;;8.9;;
48627;SDS011;34424;52.234;6.500;2023-09-07T01:20:09;9.9;;;8.9;;
48627;SDS011;34424;52.234;6.500;2023-09-07T01:25:09;11.2;;;9.2;;
48627;SDS011;34424;52.234;6.500;2023-09-07T01:30:09;10.1;;;9.1;;
48627;SDS011;34424;52.234;6.500;2023-09-07T01:35:10;9.9;;;8.9;;
48627;SDS011;34424;52.234;6.500;2023-09-07T01:40:10;11.1;;;10;;
48627;SDS011;34424;52.234;6.500;2023-09-07T01:45:10;10.7;;;9.7;;
48627;SDS011;34424;52.234;6.500;2023-09-07T01:50:09;11.7;;;10.1;;
48627;SDS011;34424;52.234;6.500;2023-09-07T01:55:09;11.5;;;10.4;;
48627;SDS011;34424;52.234;6.500;2023-09-07T02:00:10;11.3;;;10.2;;
48627;SDS011;34424;52.234;6.500;2023-09-07T02:05:10;11.8;;;10.7;;
48627;SDS011;34424;52.234;6.500;2023-09-07T02:10:10;12.4;;;11.2;;
48627;SDS011;34424;52.234;6.500;2023-09-07T02:15:10;12.2;;;11;;
48627;SDS011;34424;52.234;6.500;2023-09-07T02:20:10;13;;;11.7;;
48627;SDS011;34424;52.234;6.500;2023-09-07T02:25:10;12.8;;;11.6;;
48627;SDS011;34424;52.234;6.500;2023-09-07T02:30:10;13.3;;;12;;
48627;SDS011;34424;52.234;6.500;2023-09-07T02:35:10;13.6;;;12.3;;
48627;SDS011;34424;52.234;6.500;2023-09-07T02:40:10;14;;;12.7;;
48627;SDS011;34424;52.234;6.500;2023-09-07T02:45:10;14.9;;;13.4;;
48627;SDS011;34424;52.234;6.500;2023-09-07T02:50:10;15.7;;;13.9;;
48627;SDS011;34424;52.234;6.500;2023-09-07T02:55:10;16.2;;;14.6;;
48627;SDS011;34424;52.234;6.500;2023-09-07T03:00:10;15.1;;;13.7;;
48627;SDS011;34424;52.234;6.500;2023-09-07T03:05:10;14.9;;;13.4;;
48627;SDS011;34424;52.234;6.500;2023-09-07T03:10:10;14.4;;;13.1;;
48627;SDS011;34424;52.234;6.500;2023-09-07T03:15:10;13.6;;;12.2;;
48627;SDS011;34424;52.234;6.500;2023-09-07T03:20:10;15.2;;;13.7;;
48627;SDS011;34424;52.234;6.500;2023-09-07T03:25:10;13.8;;;12.5;;
48627;SDS011;34424;52.234;6.500;2023-09-07T03:30:10;15.6;;;14.1;;
48627;SDS011;34424;52.234;6.500;2023-09-07T03:35:10;15;;;13.6;;
48627;SDS011;34424;52.234;6.500;2023-09-07T03:40:10;15.6;;;14;;
48627;SDS011;34424;52.234;6.500;2023-09-07T03:45:09;17.4;;;15.6;;
48627;SDS011;34424;52.234;6.500;2023-09-07T03:50:10;17.5;;;15.8;;
48627;SDS011;34424;52.234;6.500;2023-09-07T03:55:10;16.8;;;15.1;;
48627;SDS011;34424;52.234;6.500;2023-09-07T04:00:10;17.9;;;16.1;;
48627;SDS011;34424;52.234;6.500;2023-09-07T04:05:10;17.9;;;16.1;;
48627;SDS011;34424;52.234;6.500;2023-09-07T04:10:10;19.2;;;17.2;;
48627;SDS011;34424;52.234;6.500;2023-09-07T04:15:10;18;;;16.2;;
48627;SDS011;34424;52.234;6.500;2023-09-07T04:20:10;18.4;;;16.6;;
48627;SDS011;34424;52.234;6.500;2023-09-07T04:25:10;18.8;;;16.9;;
48627;SDS011;34424;52.234;6.500;2023-09-07T04:30:10;18.9;;;17.1;;
48627;SDS011;34424;52.234;6.500;2023-09-07T04:35:10;18.1;;;16.3;;
48627;SDS011;34424;52.234;6.500;2023-09-07T04:40:10;17.3;;;15.6;;
48627;SDS011;34424;52.234;6.500;2023-09-07T04:45:10;17.8;;;16;;
48627;SDS011;34424;52.234;6.500;2023-09-07T04:50:10;19.1;;;17.2;;
48627;SDS011;34424;52.234;6.500;2023-09-07T04:55:10;18.7;;;16.7;;
48627;SDS011;34424;52.234;6.500;2023-09-07T05:00:10;18.8;;;17;;
48627;SDS011;34424;52.234;6.500;2023-09-07T05:05:10;18.9;;;17;;
48627;SDS011;34424;52.234;6.500;2023-09-07T05:10:10;18.4;;;16.7;;
48627;SDS011;34424;52.234;6.500;2023-09-07T05:15:09;16.9;;;15.2;;
48627;SDS011;34424;52.234;6.500;2023-09-07T05:20:10;16.3;;;14.7;;
48627;SDS011;34424;52.234;6.500;2023-09-07T05:25:09;15.3;;;13.8;;
48627;SDS011;34424;52.234;6.500;2023-09-07T05:30:10;16.4;;;14.7;;
48627;SDS011;34424;52.234;6.500;2023-09-07T05:35:10;15.5;;;14;;
48627;SDS011;34424;52.234;6.500;2023-09-07T05:40:10;15.3;;;13.8;;
48627;SDS011;34424;52.234;6.500;2023-09-07T05:45:10;15.1;;;13.5;;
48627;SDS011;34424;52.234;6.500;2023-09-07T05:50:10;13.3;;;11.8;;
48627;SDS011;34424;52.234;6.500;2023-09-07T05:55:10;13;;;11.7;;
48627;SDS011;34424;52.234;6.500;2023-09-07T06:00:10;14;;;11.8;;
48627;SDS011;34424;52.234;6.500;2023-09-07T06:05:10;12.3;;;11.2;;
48627;SDS011;34424;52.234;6.500;2023-09-07T06:10:10;11.5;;;10.4;;
48627;SDS011;34424;52.234;6.500;2023-09-07T06:15:10;12.1;;;10.8;;
48627;SDS011;34424;52.234;6.500;2023-09-07T06:20:11;12;;;10.6;;
48627;SDS011;34424;52.234;6.500;2023-09-07T06:25:10;11.4;;;10.2;;
48627;SDS011;34424;52.234;6.500;2023-09-07T06:30:11;9.7;;;8.7;;
48627;SDS011;34424;52.234;6.500;2023-09-07T06:35:11;7.9;;;7.1;;
48627;SDS011;34424;52.234;6.500;2023-09-07T06:40:11;9.6;;;6.9;;
48627;SDS011;34424;52.234;6.500;2023-09-07T06:45:12;8.2;;;6.7;;
48627;SDS011;34424;52.234;6.500;2023-09-07T06:50:12;6.7;;;6.1;;
48627;SDS011;34424;52.234;6.500;2023-09-07T06:55:13;7.1;;;5.4;;
48627;SDS011;34424;52.234;6.500;2023-09-07T07:00:14;7.1;;;5.8;;
48627;SDS011;34424;52.234;6.500;2023-09-07T07:05:14;7.2;;;5.9;;
48627;SDS011;34424;52.234;6.500;2023-09-07T07:10:15;9.2;;;5.9;;
48627;SDS011;34424;52.234;6.500;2023-09-07T07:15:15;6.4;;;5.6;;
48627;SDS011;34424;52.234;6.500;2023-09-07T07:20:16;6.2;;;5.6;;
48627;SDS011;34424;52.234;6.500;2023-09-07T07:25:17;7;;;5.9;;
48627;SDS011;34424;52.234;6.500;2023-09-07T07:30:17;6.2;;;5.6;;
48627;SDS011;34424;52.234;6.500;2023-09-07T07:35:18;6;;;5.4;;
48627;SDS011;34424;52.234;6.500;2023-09-07T07:40:19;7.6;;;5.5;;
48627;SDS011;34424;52.234;6.500;2023-09-07T07:45:20;7.7;;;5.7;;
48627;SDS011;34424;52.234;6.500;2023-09-07T07:50:20;7.1;;;5.6;;
48627;SDS011;34424;52.234;6.500;2023-09-07T07:55:21;6;;;5.5;;
48627;SDS011;34424;52.234;6.500;2023-09-07T08:00:22;6;;;4.7;;
48627;SDS011;34424;52.234;6.500;2023-09-07T08:05:23;7;;;5;;
48627;SDS011;34424;52.234;6.500;2023-09-07T08:10:24;6.7;;;4.6;;
48627;SDS011;34424;52.234;6.500;2023-09-07T08:15:24;5;;;4.4;;
48627;SDS011;34424;52.234;6.500;2023-09-07T08:20:25;8.6;;;4.8;;
48627;SDS011;34424;52.234;6.500;2023-09-07T08:25:26;7.1;;;4.8;;
48627;SDS011;34424;52.234;6.500;2023-09-07T08:30:27;6;;;4.5;;
48627;SDS011;34424;52.234;6.500;2023-09-07T08:35:28;4.6;;;4.1;;
48627;SDS011;34424;52.234;6.500;2023-09-07T08:40:29;6.3;;;4.5;;
48627;SDS011;34424;52.234;6.500;2023-09-07T08:45:30;7.3;;;4;;
48627;SDS011;34424;52.234;6.500;2023-09-07T08:50:30;6.2;;;4.3;;
48627;SDS011;34424;52.234;6.500;2023-09-07T08:55:31;4.5;;;3.9;;
48627;SDS011;34424;52.234;6.500;2023-09-07T09:00:32;4.4;;;3.6;;
48627;SDS011;34424;52.234;6.500;2023-09-07T09:05:33;5.4;;;3.9;;
48627;SDS011;34424;52.234;6.500;2023-09-07T09:10:34;5.4;;;3.9;;
48627;SDS011;34424;52.234;6.500;2023-09-07T09:15:35;6;;;3.6;;
48627;SDS011;34424;52.234;6.500;2023-09-07T09:20:37;8.1;;;4.1;;
48627;SDS011;34424;52.234;6.500;2023-09-07T09:25:37;8.3;;;3.9;;
48627;SDS011;34424;52.234;6.500;2023-09-07T09:30:38;5.2;;;3.7;;
48627;SDS011;34424;52.234;6.500;2023-09-07T09:35:39;4.1;;;3.5;;
48627;SDS011;34424;52.234;6.500;2023-09-07T09:40:49;4.1;;;3.7;;
48627;SDS011;34424;52.234;6.500;2023-09-07T09:45:49;5.8;;;3.8;;
48627;SDS011;34424;52.234;6.500;2023-09-07T09:50:49;4.9;;;3.7;;
48627;SDS011;34424;52.234;6.500;2023-09-07T09:55:49;6.4;;;3.7;;
48627;SDS011;34424;52.234;6.500;2023-09-07T10:00:49;5;;;3.8;;
48627;SDS011;34424;52.234;6.500;2023-09-07T10:05:49;5.4;;;3.8;;
48627;SDS011;34424;52.234;6.500;2023-09-07T10:10:52;5.1;;;3.7;;
48627;SDS011;34424;52.234;6.500;2023-09-07T10:15:49;4.6;;;4.1;;
48627;SDS011;34424;52.234;6.500;2023-09-07T10:21:03;6.7;;;3.9;;
48627;SDS011;34424;52.234;6.500;2023-09-07T10:25:52;4.5;;;3.7;;
48627;SDS011;34424;52.234;6.500;2023-09-07T10:30:49;7.2;;;3.9;;
48627;SDS011;34424;52.234;6.500;2023-09-07T10:35:50;4.4;;;3.8;;
48627;SDS011;34424;52.234;6.500;2023-09-07T10:40:54;6.9;;;3.9;;
48627;SDS011;34424;52.234;6.500;2023-09-07T10:45:56;5.9;;;3.7;;
48627;SDS011;34424;52.234;6.500;2023-09-07T10:50:56;4.6;;;3.5;;
48627;SDS011;34424;52.234;6.500;2023-09-07T10:55:54;3.7;;;3.4;;
48627;SDS011;34424;52.234;6.500;2023-09-07T11:00:55;5.4;;;3.6;;
48627;SDS011;34424;52.234;6.500;2023-09-07T11:05:57;3.9;;;3.2;;
48627;SDS011;34424;52.234;6.500;2023-09-07T11:10:56;3.9;;;3.5;;
48627;SDS011;34424;52.234;6.500;2023-09-07T11:15:58;3.2;;;2.9;;
48627;SDS011;34424;52.234;6.500;2023-09-07T11:20:58;3.4;;;3.1;;
48627;SDS011;34424;52.234;6.500;2023-09-07T11:25:59;3.5;;;3.2;;
48627;SDS011;34424;52.234;6.500;2023-09-07T11:31:00;3.9;;;3.3;;
48627;SDS011;34424;52.234;6.500;2023-09-07T11:36:02;4.2;;;3.5;;
48627;SDS011;34424;52.234;6.500;2023-09-07T11:41:02;4.4;;;3.6;;
48627;SDS011;34424;52.234;6.500;2023-09-07T11:46:03;3.8;;;3.4;;
48627;SDS011;34424;52.234;6.500;2023-09-07T11:51:04;3.9;;;3.3;;
48627;SDS011;34424;52.234;6.500;2023-09-07T11:56:05;3.9;;;3.4;;
48627;SDS011;34424;52.234;6.500;2023-09-07T12:01:05;5.3;;;3.6;;
48627;SDS011;34424;52.234;6.500;2023-09-07T12:06:06;5.8;;;3.3;;
48627;SDS011;34424;52.234;6.500;2023-09-07T12:11:07;4.4;;;3.5;;
48627;SDS011;34424;52.234;6.500;2023-09-07T12:16:08;4;;;3.3;;
48627;SDS011;34424;52.234;6.500;2023-09-07T12:21:09;3.9;;;3.5;;
48627;SDS011;34424;52.234;6.500;2023-09-07T12:26:10;5.6;;;3.5;;
48627;SDS011;34424;52.234;6.500;2023-09-07T12:31:11;5.7;;;3.4;;
48627;SDS011;34424;52.234;6.500;2023-09-07T12:36:12;3.5;;;3.2;;
48627;SDS011;34424;52.234;6.500;2023-09-07T12:41:13;4.3;;;3.6;;
48627;SDS011;34424;52.234;6.500;2023-09-07T12:46:13;5.1;;;3.6;;
48627;SDS011;34424;52.234;6.500;2023-09-07T12:51:14;3.3;;;3;;
48627;SDS011;34424;52.234;6.500;2023-09-07T12:56:15;4.2;;;3.3;;
48627;SDS011;34424;52.234;6.500;2023-09-07T13:01:16;6.7;;;3.6;;
48627;SDS011;34424;52.234;6.500;2023-09-07T13:06:17;3.8;;;3.4;;
48627;SDS011;34424;52.234;6.500;2023-09-07T13:11:18;3.4;;;3.1;;
48627;SDS011;34424;52.234;6.500;2023-09-07T13:16:19;3.9;;;3.5;;
48627;SDS011;34424;52.234;6.500;2023-09-07T13:21:20;4.1;;;3.4;;
48627;SDS011;34424;52.234;6.500;2023-09-07T13:26:20;4.6;;;3.6;;
48627;SDS011;34424;52.234;6.500;2023-09-07T13:31:21;3.9;;;3.3;;
48627;SDS011;34424;52.234;6.500;2023-09-07T13:36:22;4.3;;;3.5;;
48627;SDS011;34424;52.234;6.500;2023-09-07T13:41:23;6.3;;;3.9;;
48627;SDS011;34424;52.234;6.500;2023-09-07T13:46:24;8.5;;;3.7;;
48627;SDS011;34424;52.234;6.500;2023-09-07T13:51:25;5.9;;;3.7;;
48627;SDS011;34424;52.234;6.500;2023-09-07T13:56:26;5.2;;;3.7;;
48627;SDS011;34424;52.234;6.500;2023-09-07T14:01:27;3.7;;;3.4;;
48627;SDS011;34424;52.234;6.500;2023-09-07T14:06:28;4.2;;;3.5;;
48627;SDS011;34424;52.234;6.500;2023-09-07T14:11:29;3.9;;;3.5;;
48627;SDS011;34424;52.234;6.500;2023-09-07T14:16:29;4.4;;;3.3;;
48627;SDS011;34424;52.234;6.500;2023-09-07T14:21:30;7.7;;;3.3;;
48627;SDS011;34424;52.234;6.500;2023-09-07T14:26:31;5.1;;;3.4;;
48627;SDS011;34424;52.234;6.500;2023-09-07T14:31:32;5.6;;;3.7;;
48627;SDS011;34424;52.234;6.500;2023-09-07T14:36:33;3.6;;;3.3;;
48627;SDS011;34424;52.234;6.500;2023-09-07T14:41:34;4.2;;;3.3;;
48627;SDS011;34424;52.234;6.500;2023-09-07T14:46:35;3.7;;;3.4;;
48627;SDS011;34424;52.234;6.500;2023-09-07T14:51:36;3.9;;;3.5;;
48627;SDS011;34424;52.234;6.500;2023-09-07T14:56:36;3.9;;;3.6;;
48627;SDS011;34424;52.234;6.500;2023-09-07T15:01:37;4.7;;;3.5;;
48627;SDS011;34424;52.234;6.500;2023-09-07T15:06:38;4.4;;;3.3;;
48627;SDS011;34424;52.234;6.500;2023-09-07T15:11:39;4.8;;;3.6;;
48627;SDS011;34424;52.234;6.500;2023-09-07T15:16:40;4.1;;;3.7;;
48627;SDS011;34424;52.234;6.500;2023-09-07T15:21:40;4.1;;;3.7;;
48627;SDS011;34424;52.234;6.500;2023-09-07T15:26:44;3.3;;;3;;
48627;SDS011;34424;52.234;6.500;2023-09-07T15:31:42;4.4;;;3.5;;
48627;SDS011;34424;52.234;6.500;2023-09-07T15:36:43;4.9;;;3.3;;
48627;SDS011;34424;52.234;6.500;2023-09-07T15:41:44;4.4;;;3.2;;
48627;SDS011;34424;52.234;6.500;2023-09-07T15:46:44;5.4;;;3;;
48627;SDS011;34424;52.234;6.500;2023-09-07T15:51:45;5.1;;;2.8;;
48627;SDS011;34424;52.234;6.500;2023-09-07T15:56:46;5.6;;;3.2;;
48627;SDS011;34424;52.234;6.500;2023-09-07T16:01:47;3.7;;;3.1;;
48627;SDS011;34424;52.234;6.500;2023-09-07T16:06:47;3.9;;;3.4;;
48627;SDS011;34424;52.234;6.500;2023-09-07T16:11:48;3.8;;;3.3;;
48627;SDS011;34424;52.234;6.500;2023-09-07T16:16:49;4.9;;;3.2;;
48627;SDS011;34424;52.234;6.500;2023-09-07T16:21:50;4.3;;;3.2;;
48627;SDS011;34424;52.234;6.500;2023-09-07T16:26:51;3.4;;;3.1;;
48627;SDS011;34424;52.234;6.500;2023-09-07T16:31:51;3.2;;;2.9;;
48627;SDS011;34424;52.234;6.500;2023-09-07T16:36:52;5.5;;;2.9;;
48627;SDS011;34424;52.234;6.500;2023-09-07T16:41:53;4.2;;;2.9;;
48627;SDS011;34424;52.234;6.500;2023-09-07T16:46:54;5.4;;;2.9;;
48627;SDS011;34424;52.234;6.500;2023-09-07T16:51:55;3.3;;;3;;
48627;SDS011;34424;52.234;6.500;2023-09-07T16:56:55;3.5;;;3.1;;
48627;SDS011;34424;52.234;6.500;2023-09-07T17:01:56;3.3;;;3;;
48627;SDS011;34424;52.234;6.500;2023-09-07T17:06:57;4.6;;;3.2;;
48627;SDS011;34424;52.234;6.500;2023-09-07T17:11:58;3.8;;;3.3;;
48627;SDS011;34424;52.234;6.500;2023-09-07T17:16:58;5.6;;;3.5;;
48627;SDS011;34424;52.234;6.500;2023-09-07T17:21:59;3.9;;;3.5;;
48627;SDS011;34424;52.234;6.500;2023-09-07T17:26:59;4.4;;;3.7;;
48627;SDS011;34424;52.234;6.500;2023-09-07T17:32:00;4.4;;;3.3;;
48627;SDS011;34424;52.234;6.500;2023-09-07T17:37:00;5.6;;;3.5;;
48627;SDS011;34424;52.234;6.500;2023-09-07T17:42:01;4.9;;;3.5;;
48627;SDS011;34424;52.234;6.500;2023-09-07T17:47:01;8;;;4.3;;
48627;SDS011;34424;52.234;6.500;2023-09-07T17:52:02;7.2;;;3.8;;
48627;SDS011;34424;52.234;6.500;2023-09-07T17:57:02;7.2;;;4.2;;
48627;SDS011;34424;52.234;6.500;2023-09-07T18:02:03;5.2;;;3.9;;
48627;SDS011;34424;52.234;6.500;2023-09-07T18:07:03;4;;;3.6;;
48627;SDS011;34424;52.234;6.500;2023-09-07T18:12:04;6.3;;;4.2;;
48627;SDS011;34424;52.234;6.500;2023-09-07T18:17:04;5.8;;;3.9;;
48627;SDS011;34424;52.234;6.500;2023-09-07T18:22:04;5.7;;;4.3;;
48627;SDS011;34424;52.234;6.500;2023-09-07T18:27:04;5;;;4;;
48627;SDS011;34424;52.234;6.500;2023-09-07T18:32:05;7.7;;;4.3;;
48627;SDS011;34424;52.234;6.500;2023-09-07T18:37:05;5.9;;;4.3;;
48627;SDS011;34424;52.234;6.500;2023-09-07T18:42:06;4.8;;;3.7;;
48627;SDS011;34424;52.234;6.500;2023-09-07T18:47:06;4.4;;;3.8;;
48627;SDS011;34424;52.234;6.500;2023-09-07T18:52:06;5;;;4.5;;
48627;SDS011;34424;52.234;6.500;2023-09-07T18:57:06;4.5;;;3.7;;
48627;SDS011;34424;52.234;6.500;2023-09-07T19:02:07;5.8;;;4;;
48627;SDS011;34424;52.234;6.500;2023-09-07T19:07:07;6.9;;;4.5;;
48627;SDS011;34424;52.234;6.500;2023-09-07T19:12:08;4.5;;;3.8;;
48627;SDS011;34424;52.234;6.500;2023-09-07T19:17:08;5.6;;;4.8;;
48627;SDS011;34424;52.234;6.500;2023-09-07T19:22:08;6.2;;;4.3;;
48627;SDS011;34424;52.234;6.500;2023-09-07T19:27:08;4.9;;;4.2;;
48627;SDS011;34424;52.234;6.500;2023-09-07T19:32:08;5.7;;;4.2;;
48627;SDS011;34424;52.234;6.500;2023-09-07T19:37:09;6.6;;;4.5;;
48627;SDS011;34424;52.234;6.500;2023-09-07T19:42:09;5.3;;;4.3;;
48627;SDS011;34424;52.234;6.500;2023-09-07T19:47:09;7.1;;;5.4;;
48627;SDS011;34424;52.234;6.500;2023-09-07T19:52:09;5.2;;;4.4;;
48627;SDS011;34424;52.234;6.500;2023-09-07T19:57:10;6.3;;;4.6;;
48627;SDS011;34424;52.234;6.500;2023-09-07T20:02:10;5;;;4.3;;
48627;SDS011;34424;52.234;6.500;2023-09-07T20:07:10;7.4;;;4.7;;
48627;SDS011;34424;52.234;6.500;2023-09-07T20:12:10;5.1;;;4.5;;
48627;SDS011;34424;52.234;6.500;2023-09-07T20:17:11;5.3;;;4.5;;
48627;SDS011;34424;52.234;6.500;2023-09-07T20:22:12;5.3;;;4.8;;
48627;SDS011;34424;52.234;6.500;2023-09-07T20:27:11;6;;;5;;
48627;SDS011;34424;52.234;6.500;2023-09-07T20:32:11;7.6;;;5;;
48627;SDS011;34424;52.234;6.500;2023-09-07T20:37:12;5.3;;;4.7;;
48627;SDS011;34424;52.234;6.500;2023-09-07T20:42:12;6.2;;;4.7;;
48627;SDS011;34424;52.234;6.500;2023-09-07T20:47:12;7.9;;;5;;
48627;SDS011;34424;52.234;6.500;2023-09-07T20:52:12;6;;;4.1;;
48627;SDS011;34424;52.234;6.500;2023-09-07T20:57:13;6.5;;;4.9;;
48627;SDS011;34424;52.234;6.500;2023-09-07T21:02:13;6;;;4.9;;
48627;SDS011;34424;52.234;6.500;2023-09-07T21:07:13;5.4;;;4.9;;
48627;SDS011;34424;52.234;6.500;2023-09-07T21:12:13;5;;;4.4;;
48627;SDS011;34424;52.234;6.500;2023-09-07T21:17:14;5.7;;;4.3;;
48627;SDS011;34424;52.234;6.500;2023-09-07T21:22:14;5.7;;;4.6;;
48627;SDS011;34424;52.234;6.500;2023-09-07T21:27:14;5;;;4.5;;
48627;SDS011;34424;52.234;6.500;2023-09-07T21:32:14;8.9;;;4.8;;
48627;SDS011;34424;52.234;6.500;2023-09-07T21:37:14;5.2;;;4.7;;
48627;SDS011;34424;52.234;6.500;2023-09-07T21:42:15;5.7;;;4.5;;
48627;SDS011;34424;52.234;6.500;2023-09-07T21:47:15;5.7;;;5.1;;
48627;SDS011;34424;52.234;6.500;2023-09-07T21:52:15;6.2;;;5;;
48627;SDS011;34424;52.234;6.500;2023-09-07T21:57:15;6.3;;;5.2;;
48627;SDS011;34424;52.234;6.500;2023-09-07T22:02:15;5.4;;;4.9;;
48627;SDS011;34424;52.234;6.500;2023-09-07T22:07:15;5.2;;;4.7;;
48627;SDS011;34424;52.234;6.500;2023-09-07T22:12:16;6.3;;;4.8;;
48627;SDS011;34424;52.234;6.500;2023-09-07T22:17:16;5.7;;;5;;
48627;SDS011;34424;52.234;6.500;2023-09-07T22:22:17;5.8;;;4.7;;
48627;SDS011;34424;52.234;6.500;2023-09-07T22:27:16;6;;;5.1;;
48627;SDS011;34424;52.234;6.500;2023-09-07T22:32:16;6.1;;;4.8;;
48627;SDS011;34424;52.234;6.500;2023-09-07T22:37:16;7;;;5.6;;
48627;SDS011;34424;52.234;6.500;2023-09-07T22:42:16;7.9;;;5.4;;
48627;SDS011;34424;52.234;6.500;2023-09-07T22:47:17;5.5;;;5;;
48627;SDS011;34424;52.234;6.500;2023-09-07T22:52:17;6.8;;;5.3;;
48627;SDS011;34424;52.234;6.500;2023-09-07T22:57:17;6;;;4.8;;
48627;SDS011;34424;52.234;6.500;2023-09-07T23:02:17;6;;;5.4;;
48627;SDS011;34424;52.234;6.500;2023-09-07T23:07:17;6.1;;;5.1;;
48627;SDS011;34424;52.234;6.500;2023-09-07T23:12:17;6.1;;;5.5;;
48627;SDS011;34424;52.234;6.500;2023-09-07T23:17:17;8;;;5.6;;
48627;SDS011;34424;52.234;6.500;2023-09-07T23:22:17;6;;;5.4;;
48627;SDS011;34424;52.234;6.500;2023-09-07T23:27:18;6.9;;;5.6;;
48627;SDS011;34424;52.234;6.500;2023-09-07T23:32:18;6.1;;;5.5;;
48627;SDS011;34424;52.234;6.500;2023-09-07T23:37:18;6;;;5.4;;
48627;SDS011;34424;52.234;6.500;2023-09-07T23:42:18;6.3;;;5.7;;
48627;SDS011;34424;52.234;6.500;2023-09-07T23:47:18;5.8;;;5.3;;
48627;SDS011;34424;52.234;6.500;2023-09-07T23:52:18;6.8;;;6.1;;
48627;SDS011;34424;52.234;6.500;2023-09-07T23:57:18;6.9;;;6.2;;
